EST,Max TemperatureF,Mean TemperatureF,Min TemperatureF,Max Dew PointF,MeanDew PointF,Min DewpointF,Max Humidity, Mean Humidity, Min Humidity, Max Sea Level PressureIn, Mean Sea Level PressureIn, Min Sea Level PressureIn, Max VisibilityMiles, Mean VisibilityMiles, Min VisibilityMiles, Max Wind SpeedMPH, Mean Wind SpeedMPH, Max Gust SpeedMPH,PrecipitationIn, CloudCover, Events, WindDirDegrees
2014-1-1,4,-5,-14,0,-13,-20,86,73,59,30.52,30.41,30.22,10,8,1,9,4,12,0.04,4,Snow,79
2014-1-2,1,-6,-14,-10,-16,-21,86,71,56,30.46,30.40,30.29,10,9,2,7,4,10,T,3,,80
2014-1-3,15,0,-16,8,-8,-21,87,77,67,30.39,30.17,29.78,10,8,1,22,8,30,T,7,Snow,110
2014-1-4,28,22,15,23,16,6,88,75,61,30.00,29.70,29.57,10,4,1,21,11,29,0.16,8,Snow,217
2014-1-5,21,15,9,13,9,0,88,75,62,30.12,30.03,29.85,10,8,2,17,10,24,T,7,Snow,285
2014-1-6,9,2,-6,-1,-7,-12,82,71,59,29.81,29.72,29.67,10,4,1,20,10,26,0.10,8,Snow,313
2014-1-7,4,-2,-8,-1,-8,-13,87,78,68,30.06,29.79,29.66,10,2,0,23,18,31,0.06,8,Snow,247
2014-1-8,15,6,-4,6,1,-10,79,70,61,30.40,30.24,30.09,10,8,3,18,12,24,T,7,Snow,241
2014-1-9,19,10,1,10,4,-3,95,78,61,30.50,30.39,30.21,10,10,5,15,6,20,T,6,Snow,168
2014-1-10,32,25,17,29,21,10,92,83,74,30.19,29.96,29.59,10,6,1,13,8,18,0.10,8,Snow,127
2014-1-11,35,34,32,34,31,26,100,89,78,29.53,29.31,29.18,10,4,0,22,10,30,0.26,8,Fog-Rain-Snow,261
2014-1-12,33,32,30,28,26,23,85,79,72,29.70,29.58,29.43,10,8,0,18,10,28,0.03,7,Fog-Snow,219
2014-1-13,37,33,28,33,28,20,89,79,69,29.58,29.46,29.38,10,8,2,20,8,27,0.03,8,Rain-Snow,224
2014-1-14,28,25,21,22,20,17,88,76,63,29.76,29.70,29.58,10,5,0,14,6,19,0.14,8,Fog-Snow,333
2014-1-15,21,14,7,15,6,-1,84,75,66,29.87,29.79,29.68,10,6,1,15,8,22,0.06,8,Snow,328
2014-1-16,24,20,15,21,16,11,92,85,77,29.72,29.58,29.51,9,4,0,18,11,29,0.15,8,Fog-Snow,136
2014-1-17,29,23,17,23,20,14,92,85,77,29.81,29.67,29.59,10,5,1,15,6,19,0.06,8,Snow,334
2014-1-18,19,12,4,12,7,2,92,77,61,29.87,29.80,29.64,10,8,2,13,4,15,T,5,Snow,280
2014-1-19,23,14,5,19,11,-4,88,73,58,29.62,29.38,29.24,10,5,0,23,12,32,0.10,8,Fog-Snow,282
2014-1-20,5,-1,-8,-6,-14,-18,71,56,41,30.20,29.96,29.63,10,10,10,16,8,23,0.00,1,,352
2014-1-21,0,-9,-18,-10,-16,-23,82,67,51,30.31,30.23,30.13,10,10,7,9,2,12,0.00,5,,63
2014-1-22,5,0,-5,1,-5,-11,87,79,71,30.15,30.00,29.90,10,4,1,16,9,23,0.09,8,Snow,89
2014-1-23,5,-4,-13,-5,-13,-16,83,67,51,30.44,30.36,30.13,10,10,9,15,6,21,T,3,,337
2014-1-24,17,2,-13,14,5,-18,88,80,72,30.27,29.56,29.16,10,3,0,22,11,32,0.34,7,Fog-Snow,225
2014-1-25,19,8,-4,16,-1,-13,88,71,53,29.63,29.35,29.09,10,2,0,29,11,39,0.23,7,Fog-Snow,329
2014-1-26,5,-4,-14,0,-8,-20,87,78,68,29.63,29.44,29.30,10,3,0,12,5,15,0.11,7,Snow,74
2014-1-27,4,-3,-11,-2,-10,-21,79,66,52,30.03,29.85,29.37,10,4,0,17,8,24,0.25,7,Snow,279
2014-1-28,3,-4,-11,-4,-10,-17,82,69,56,30.07,29.95,29.78,10,7,2,21,12,26,0.01,5,Snow,242
2014-1-29,14,8,1,8,-2,-7,83,72,61,29.94,29.80,29.70,10,5,1,20,11,27,0.03,7,Snow,231
2014-1-30,27,21,14,21,16,9,88,78,67,29.85,29.60,29.48,10,5,0,20,11,27,0.23,8,Fog-Snow,209
2014-1-31,16,13,9,11,6,3,84,76,67,30.09,29.93,29.69,10,7,2,20,9,27,0.01,8,Snow,261